Time;durP1;ratioP1;P1;durP2;ratioP2;P2;SDS_P1;SDS_P2;PMS_P1;PMS_P2;Temp;Humidity;BMP_temperature;BMP_pressure;BME280_temperature;BME280_humidity;BME280_pressure;Samples;Min_cycle;Max_cycle;Signal;HPM_P1;HPM_P2
2022/04/16 00:00:17;;;;;;;;;19.00;15.00;;;;;-146.67;100.00;57155.34;5083653;27;61789;-76
2022/04/16 00:02:47;;;;;;;;;13.25;12.00;;;;;-146.67;100.00;57155.34;5083338;28;61774;-75
2022/04/16 00:05:13;;;;;;;;;16.75;13.75;;;;;-146.67;100.00;57155.34;5082394;28;62520;-75
2022/04/16 00:07:39;;;;;;;;;13.00;11.50;;;;;-146.67;100.00;57155.34;5083055;28;62168;-75
2022/04/16 00:10:05;;;;;;;;;17.00;12.50;;;;;-146.67;100.00;57155.34;5083122;28;62361;-76
2022/04/16 00:12:31;;;;;;;;;13.75;13.00;;;;;-146.67;100.00;57155.34;5083579;28;61746;-76
2022/04/16 00:14:57;;;;;;;;;14.75;13.75;;;;;-146.67;100.00;57155.34;5082345;28;61928;-75
2022/04/16 00:17:22;;;;;;;;;15.50;13.75;;;;;-146.67;100.00;57155.34;5098896;27;61945;-76
2022/04/16 00:19:48;;;;;;;;;20.50;15.50;;;;;-146.67;100.00;57155.34;5083427;28;62047;-75
2022/04/16 00:22:13;;;;;;;;;15.50;13.75;;;;;-146.67;100.00;57155.34;5083168;27;61663;-76
2022/04/16 00:24:40;;;;;;;;;11.50;10.00;;;;;-146.67;100.00;57155.34;5082680;27;62090;-76
2022/04/16 00:27:10;;;;;;;;;17.25;13.00;;;;;-146.67;100.00;57155.34;5082939;28;61765;-75
2022/04/16 00:29:38;;;;;;;;;13.75;13.50;;;;;-146.67;100.00;57155.34;5098599;27;61958;-76
2022/04/16 00:32:07;;;;;;;;;18.00;13.50;;;;;-146.67;100.00;57155.34;5083153;28;62029;-75
2022/04/16 00:34:33;;;;;;;;;15.75;12.00;;;;;-146.67;100.00;57155.34;5082477;28;62032;-75
2022/04/16 00:36:59;;;;;;;;;11.00;11.00;;;;;-146.67;100.00;57155.34;5082477;28;61849;-75
2022/04/16 00:39:25;;;;;;;;;14.50;14.50;;;;;-146.67;100.00;57155.34;5082786;28;61700;-75
2022/04/16 00:41:51;;;;;;;;;15.25;12.25;;;;;-146.67;100.00;57155.34;5082972;28;61730;-76
2022/04/16 00:44:19;;;;;;;;;16.25;13.00;;;;;-146.67;100.00;57155.34;5097416;27;63212;-76
2022/04/16 00:46:48;;;;;;;;;16.25;15.25;;;;;-146.67;100.00;57155.34;5081343;28;61773;-76
2022/04/16 00:49:13;;;;;;;;;18.00;15.25;;;;;-146.67;100.00;57155.34;5082677;28;61827;-76
2022/04/16 00:51:43;;;;;;;;;12.75;10.75;;;;;-146.67;100.00;57155.34;5082307;28;62191;-75
2022/04/16 00:54:10;;;;;;;;;11.00;10.75;;;;;-146.67;100.00;57155.34;5081593;27;61988;-75
2022/04/16 00:56:36;;;;;;;;;8.75;8.75;;;;;-146.67;100.00;57155.34;5082840;27;62097;-75
2022/04/16 00:59:04;;;;;;;;;17.75;14.75;;;;;-146.67;100.00;57155.34;5082304;27;61938;-75
2022/04/16 01:01:30;;;;;;;;;14.00;14.00;;;;;-146.67;100.00;57155.34;5082653;27;61882;-75
2022/04/16 01:03:55;;;;;;;;;15.00;13.00;;;;;-146.67;100.00;57155.34;5082103;27;61765;-75
2022/04/16 01:06:21;;;;;;;;;14.00;13.25;;;;;-146.67;100.00;57155.34;5082206;27;61740;-75
2022/04/16 01:08:46;;;;;;;;;15.25;15.00;;;;;-146.67;100.00;57155.34;5082391;28;62126;-76
2022/04/16 01:11:16;;;;;;;;;17.25;13.50;;;;;-146.67;100.00;57155.34;5082407;27;62147;-75
2022/04/16 01:13:47;;;;;;;;;12.75;11.50;;;;;-146.67;100.00;57155.34;5080256;28;64892;-75
2022/04/16 01:16:12;;;;;;;;;15.25;12.50;;;;;-146.67;100.00;57155.34;5082354;27;62300;-75
2022/04/16 01:18:46;;;;;;;;;15.00;15.00;;;;;-146.67;100.00;57155.34;5082656;27;61872;-75
2022/04/16 01:21:12;;;;;;;;;16.00;14.25;;;;;-146.67;100.00;57155.34;5081105;28;61723;-75
2022/04/16 01:23:37;;;;;;;;;15.75;15.50;;;;;-146.67;100.00;57155.34;5081462;28;61943;-75
2022/04/16 01:26:03;;;;;;;;;19.00;12.25;;;;;-146.67;100.00;57155.34;5082432;27;61730;-75
2022/04/16 01:28:28;;;;;;;;;18.00;15.00;;;;;-146.67;100.00;57155.34;5082049;27;62451;-75
2022/04/16 01:30:53;;;;;;;;;20.50;18.00;;;;;-146.67;100.00;57155.34;5082511;27;61770;-76
2022/04/16 01:33:19;;;;;;;;;16.75;15.75;;;;;-146.67;100.00;57155.34;5080127;28;64737;-75
2022/04/16 01:35:44;;;;;;;;;20.00;16.50;;;;;-146.67;100.00;57155.34;5082017;28;61901;-76
2022/04/16 01:38:10;;;;;;;;;16.00;14.00;;;;;-146.67;100.00;57155.34;5081683;27;61766;-75
2022/04/16 01:40:35;;;;;;;;;17.75;16.75;;;;;-146.67;100.00;57155.34;5082566;27;61963;-75
2022/04/16 01:43:01;;;;;;;;;21.75;16.50;;;;;-146.67;100.00;57155.34;5081129;28;62185;-75
2022/04/16 01:45:26;;;;;;;;;18.00;16.00;;;;;-146.67;100.00;57155.34;5081799;28;61881;-75
2022/04/16 01:47:53;;;;;;;;;19.50;16.25;;;;;-146.67;100.00;57155.34;5082069;27;61804;-75
2022/04/16 01:50:19;;;;;;;;;19.50;14.00;;;;;-146.67;100.00;57155.34;5080722;28;62198;-75
2022/04/16 01:52:45;;;;;;;;;16.50;14.75;;;;;-146.67;100.00;57155.34;5080972;27;62188;-75
2022/04/16 01:55:12;;;;;;;;;21.00;20.00;;;;;-146.67;100.00;57155.34;5081993;28;61907;-75
2022/04/16 01:57:38;;;;;;;;;19.00;17.75;;;;;-146.67;100.00;57155.34;5081720;28;61778;-75
2022/04/16 02:00:08;;;;;;;;;18.50;16.25;;;;;-146.67;100.00;57155.34;5082216;28;62044;-75
2022/04/16 02:02:36;;;;;;;;;18.00;16.00;;;;;-146.67;100.00;57155.34;5081188;28;61826;-75
2022/04/16 02:05:06;;;;;;;;;20.50;18.00;;;;;-146.67;100.00;57155.34;5083158;28;61831;-75
2022/04/16 02:07:32;;;;;;;;;21.25;17.50;;;;;-146.67;100.00;57155.34;5100760;27;61863;-75
2022/04/16 02:09:57;;;;;;;;;20.50;17.50;;;;;-146.67;100.00;57155.34;5085392;28;61840;-75
2022/04/16 02:12:23;;;;;;;;;14.75;13.25;;;;;-146.67;100.00;57155.34;5084170;28;62730;-75
2022/04/16 02:14:48;;;;;;;;;17.00;13.00;;;;;-146.67;100.00;57155.34;5085172;28;61907;-75
2022/04/16 02:17:14;;;;;;;;;21.00;15.25;;;;;-146.67;100.00;57155.34;5085390;28;61928;-75
2022/04/16 02:19:39;;;;;;;;;26.00;19.75;;;;;-146.67;100.00;57155.34;5085007;28;61889;-76
2022/04/16 02:22:05;;;;;;;;;20.75;16.75;;;;;-146.67;100.00;57155.34;5083005;27;64620;-75
2022/04/16 02:24:31;;;;;;;;;30.75;16.00;;;;;-146.67;100.00;57155.34;5084932;28;61759;-75
2022/04/16 02:26:57;;;;;;;;;16.00;14.00;;;;;-146.67;100.00;57155.34;5084907;28;61946;-75
2022/04/16 02:29:22;;;;;;;;;16.50;16.50;;;;;-146.67;100.00;57155.34;5084999;28;61855;-75
2022/04/16 02:31:48;;;;;;;;;21.25;18.75;;;;;-146.67;100.00;57155.34;5084424;27;61782;-75
2022/04/16 02:34:14;;;;;;;;;21.25;16.75;;;;;-146.67;100.00;57155.34;5084701;28;61983;-75
2022/04/16 02:36:40;;;;;;;;;21.50;16.50;;;;;-146.67;100.00;57155.34;5084834;28;61931;-75
2022/04/16 02:39:06;;;;;;;;;26.50;14.25;;;;;-146.67;100.00;57155.34;5084658;28;62429;-75
2022/04/16 02:41:31;;;;;;;;;22.75;18.00;;;;;-146.67;100.00;57155.34;5083867;28;61845;-75
2022/04/16 02:44:00;;;;;;;;;17.50;17.00;;;;;-146.67;100.00;57155.34;5084825;28;61945;-75
2022/04/16 02:49:10;;;;;;;;;21.50;18.75;;;;;-146.67;100.00;57155.34;5084914;28;61720;-75
2022/04/16 02:51:36;;;;;;;;;21.75;18.50;;;;;-146.67;100.00;57155.34;5095963;27;64039;-75
2022/04/16 02:54:02;;;;;;;;;17.50;12.75;;;;;-146.67;100.00;57155.34;5084564;28;61775;-75
2022/04/16 02:56:27;;;;;;;;;19.25;18.00;;;;;-146.67;100.00;57155.34;5084288;28;61875;-75
2022/04/16 02:58:53;;;;;;;;;22.50;17.25;;;;;-146.67;100.00;57155.34;5084534;28;61745;-75
2022/04/16 03:01:18;;;;;;;;;19.00;16.50;;;;;-146.67;100.00;57155.34;5083986;27;62762;-75
2022/04/16 03:03:44;;;;;;;;;24.75;17.75;;;;;-146.67;100.00;57155.34;5084050;28;63828;-75
2022/04/16 03:06:09;;;;;;;;;26.25;20.25;;;;;-146.67;100.00;57155.34;5084317;28;61917;-75
2022/04/16 03:08:36;;;;;;;;;21.50;19.25;;;;;-146.67;100.00;57155.34;5084024;27;61956;-75
2022/04/16 03:11:04;;;;;;;;;22.75;19.75;;;;;-146.67;100.00;57155.34;5083618;28;61833;-75
2022/04/16 03:13:30;;;;;;;;;23.00;20.50;;;;;-146.67;100.00;57155.34;5084195;28;61821;-75
2022/04/16 03:18:40;;;;;;;;;21.25;19.25;;;;;-146.67;100.00;57155.34;5084354;28;62308;-75
2022/04/16 03:21:06;;;;;;;;;19.50;18.00;;;;;-146.67;100.00;57155.34;5083640;28;63145;-75
2022/04/16 03:23:31;;;;;;;;;21.50;19.75;;;;;-146.67;100.00;57155.34;5083505;28;62280;-75
2022/04/16 03:25:59;;;;;;;;;22.75;20.00;;;;;-146.67;100.00;57155.34;5084252;28;61745;-75
2022/04/16 03:28:25;;;;;;;;;24.00;21.00;;;;;-146.67;100.00;57155.34;5100092;27;61982;-75
2022/04/16 03:30:50;;;;;;;;;22.25;20.00;;;;;-146.67;100.00;57155.34;5083243;28;62089;-75
2022/04/16 03:33:16;;;;;;;;;31.25;24.00;;;;;-146.67;100.00;57155.34;5083977;28;61960;-75
2022/04/16 03:35:41;;;;;;;;;30.50;23.25;;;;;-146.67;100.00;57155.34;5099355;27;62201;-75
2022/04/16 03:38:06;;;;;;;;;29.00;23.00;;;;;-146.67;100.00;57155.34;5083480;28;61870;-75
2022/04/16 03:40:32;;;;;;;;;28.25;24.75;;;;;-146.67;100.00;57155.34;5083376;28;62490;-75
2022/04/16 03:43:00;;;;;;;;;27.75;23.50;;;;;-146.67;100.00;57155.34;5083553;28;62289;-75
2022/04/16 03:45:31;;;;;;;;;30.75;24.00;;;;;-146.67;100.00;57155.34;5099287;27;62117;-75
2022/04/16 03:47:58;;;;;;;;;37.00;26.25;;;;;-146.67;100.00;57155.34;5083854;28;61787;-75
2022/04/16 03:50:25;;;;;;;;;24.25;21.50;;;;;-146.67;100.00;57155.34;5083099;28;61898;-75
2022/04/16 03:52:52;;;;;;;;;35.75;24.50;;;;;-146.67;100.00;57155.34;5082712;28;61770;-75
2022/04/16 04:00:53;;;;;;;;;26.50;25.00;;;;;-146.67;100.00;57155.34;5082738;28;61837;-76
2022/04/16 04:03:19;;;;;;;;;28.25;24.25;;;;;-146.67;100.00;57155.34;5099247;27;61944;-75
2022/04/16 04:05:45;;;;;;;;;23.75;20.00;;;;;-146.67;100.00;57155.34;5083262;28;61907;-76
2022/04/16 04:08:11;;;;;;;;;29.75;25.75;;;;;-146.67;100.00;57155.34;5083080;28;61718;-76
2022/04/16 04:10:38;;;;;;;;;28.25;24.50;;;;;-146.67;100.00;57155.34;5082843;28;61899;-75
2022/04/16 04:13:04;;;;;;;;;25.50;24.00;;;;;-146.67;100.00;57155.34;5083254;28;61839;-75
2022/04/16 04:15:30;;;;;;;;;32.25;27.50;;;;;-146.67;100.00;57155.34;5083417;28;61739;-75
2022/04/16 04:17:56;;;;;;;;;33.00;27.25;;;;;-146.67;100.00;57155.34;5083225;28;62200;-76
2022/04/16 04:20:23;;;;;;;;;24.75;23.25;;;;;-146.67;100.00;57155.34;5082796;28;62583;-75
2022/04/16 04:22:50;;;;;;;;;31.25;27.00;;;;;-146.67;100.00;57155.34;5082545;28;61754;-75
2022/04/16 04:25:18;;;;;;;;;28.00;26.25;;;;;-146.67;100.00;57155.34;5083330;28;61872;-76
2022/04/16 04:27:45;;;;;;;;;26.75;21.50;;;;;-146.67;100.00;57155.34;5097868;27;61968;-76
2022/04/16 04:30:11;;;;;;;;;25.25;23.75;;;;;-146.67;100.00;57155.34;5082206;28;62035;-75
2022/04/16 04:32:37;;;;;;;;;31.00;24.25;;;;;-146.67;100.00;57155.34;5082681;28;61848;-76
2022/04/16 04:35:04;;;;;;;;;29.25;23.25;;;;;-146.67;100.00;57155.34;5082937;28;62210;-75
2022/04/16 04:37:30;;;;;;;;;30.25;27.00;;;;;-146.67;100.00;57155.34;5082912;28;62133;-76
2022/04/16 04:39:55;;;;;;;;;37.50;29.50;;;;;-146.67;100.00;57155.34;5081954;28;62140;-76
2022/04/16 04:42:31;;;;;;;;;29.75;26.00;;;;;-146.67;100.00;57155.34;5082754;28;62136;-75
2022/04/16 04:44:57;;;;;;;;;29.25;26.75;;;;;-146.67;100.00;57155.34;5082844;28;61858;-76
2022/04/16 04:47:23;;;;;;;;;27.75;22.25;;;;;-146.67;100.00;57155.34;5083133;28;61976;-75
2022/04/16 04:49:48;;;;;;;;;32.00;28.00;;;;;-146.67;100.00;57155.34;5097860;27;63737;-75
2022/04/16 04:52:29;;;;;;;;;31.50;24.50;;;;;-146.67;100.00;57155.34;5081770;28;61937;-75
2022/04/16 04:54:55;;;;;;;;;34.00;25.50;;;;;-146.67;100.00;57155.34;5082638;28;61824;-75
2022/04/16 04:57:20;;;;;;;;;32.75;27.25;;;;;-146.67;100.00;57155.34;5098778;27;61924;-75
2022/04/16 04:59:46;;;;;;;;;29.00;27.50;;;;;-146.67;100.00;57155.34;5082209;28;62092;-75
2022/04/16 05:02:11;;;;;;;;;31.75;25.25;;;;;-146.67;100.00;57155.34;5082324;28;62077;-75
2022/04/16 05:04:37;;;;;;;;;31.00;27.75;;;;;-146.67;100.00;57155.34;5082453;28;62257;-75
2022/04/16 05:07:03;;;;;;;;;35.00;30.50;;;;;-146.67;100.00;57155.34;5082174;28;62189;-75
2022/04/16 05:09:29;;;;;;;;;34.00;31.00;;;;;-146.67;100.00;57155.34;5096329;27;64005;-75
2022/04/16 05:11:55;;;;;;;;;30.00;23.00;;;;;-146.67;100.00;57155.34;5082166;28;61754;-76
2022/04/16 05:14:21;;;;;;;;;34.00;29.25;;;;;-146.67;100.00;57155.34;5082471;28;62059;-76
2022/04/16 05:16:47;;;;;;;;;34.00;27.25;;;;;-146.67;100.00;57155.34;5097860;27;62303;-78
2022/04/16 05:19:14;;;;;;;;;41.25;30.75;;;;;-146.67;100.00;57155.34;5081580;28;62797;-78
2022/04/16 05:21:39;;;;;;;;;36.25;33.50;;;;;-146.67;100.00;57155.34;5082094;28;62023;-77
2022/04/16 05:24:06;;;;;;;;;29.75;23.75;;;;;-146.67;100.00;57155.34;5081959;28;61949;-76
2022/04/16 05:26:35;;;;;;;;;46.50;34.00;;;;;-146.67;100.00;57155.34;5082485;28;61990;-78
2022/04/16 05:29:01;;;;;;;;;39.75;33.50;;;;;-146.67;100.00;57155.34;5081483;28;62036;-77
2022/04/16 05:31:29;;;;;;;;;30.50;26.50;;;;;-146.67;100.00;57155.34;5082238;28;62215;-78
2022/04/16 05:36:39;;;;;;;;;34.25;28.50;;;;;-146.67;100.00;57155.34;5086226;28;61910;-78
2022/04/16 05:39:05;;;;;;;;;39.75;34.50;;;;;-146.67;100.00;57155.34;5082016;28;61846;-78
2022/04/16 05:41:33;;;;;;;;;39.25;31.75;;;;;-146.67;100.00;57155.34;5101411;27;61959;-78
2022/04/16 05:43:59;;;;;;;;;36.25;30.00;;;;;-146.67;100.00;57155.34;5099444;27;61847;-82
2022/04/16 05:46:24;;;;;;;;;39.25;35.75;;;;;-146.67;100.00;57155.34;5074600;27;62007;-85
2022/04/16 05:48:50;;;;;;;;;45.25;35.50;;;;;-146.67;100.00;57155.34;5082147;28;62904;-77
2022/04/16 05:51:16;;;;;;;;;40.50;32.50;;;;;-146.67;100.00;57155.34;5084642;28;62089;-77
2022/04/16 05:53:42;;;;;;;;;40.50;35.50;;;;;-146.67;100.00;57155.34;5084975;28;61795;-77
2022/04/16 05:56:09;;;;;;;;;36.75;23.75;;;;;-146.67;100.00;57155.34;5084859;28;61755;-78
2022/04/16 05:58:36;;;;;;;;;52.75;35.25;;;;;-146.67;100.00;57155.34;5083502;27;62039;-78
2022/04/16 06:01:02;;;;;;;;;30.75;26.50;;;;;-146.67;100.00;57155.34;5085074;28;61908;-78
2022/04/16 06:03:28;;;;;;;;;36.75;29.75;;;;;-146.67;100.00;57155.34;5084388;27;61965;-78
2022/04/16 06:05:54;;;;;;;;;40.00;35.00;;;;;-146.67;100.00;57155.34;5100540;27;62103;-78
2022/04/16 06:08:20;;;;;;;;;39.00;32.75;;;;;-146.67;100.00;57155.34;5083334;27;62390;-78
2022/04/16 06:10:46;;;;;;;;;39.50;31.75;;;;;-146.67;100.00;57155.34;5082242;27;62175;-82
2022/04/16 06:13:11;;;;;;;;;29.50;25.00;;;;;-146.67;100.00;57155.34;5082774;28;61916;-78
2022/04/16 06:15:39;;;;;;;;;44.75;34.75;;;;;-146.67;100.00;57155.34;5082416;28;62117;-79
2022/04/16 06:18:05;;;;;;;;;46.00;37.75;;;;;-146.67;100.00;57155.34;5082475;27;62711;-81
2022/04/16 06:20:30;;;;;;;;;33.75;31.50;;;;;-146.67;100.00;57155.34;5083145;27;62058;-79
2022/04/16 06:22:56;;;;;;;;;34.50;30.25;;;;;-146.67;100.00;57155.34;5083533;27;62657;-79
2022/04/16 06:25:22;;;;;;;;;43.50;37.25;;;;;-146.67;100.00;57155.34;5082840;27;61780;-79
2022/04/16 06:27:48;;;;;;;;;43.00;34.25;;;;;-146.67;100.00;57155.34;5098479;27;63792;-79
2022/04/16 06:30:13;;;;;;;;;27.50;25.00;;;;;-146.67;100.00;57155.34;5083126;28;62362;-78
2022/04/16 06:32:39;;;;;;;;;42.00;32.00;;;;;-146.67;100.00;57155.34;5083076;28;61800;-81
2022/04/16 06:35:12;;;;;;;;;29.50;29.00;;;;;-146.67;100.00;57155.34;5098801;27;61891;-87
2022/04/16 06:37:38;;;;;;;;;48.25;37.00;;;;;-146.67;100.00;57155.34;5079558;27;62422;-85
2022/04/16 06:40:06;;;;;;;;;42.00;31.25;;;;;-146.67;100.00;57155.34;5111835;27;61939;-82
2022/04/16 06:42:32;;;;;;;;;30.00;28.50;;;;;-146.67;100.00;57155.34;5098566;27;62008;-82
2022/04/16 06:44:57;;;;;;;;;33.75;32.00;;;;;-146.67;100.00;57155.34;5082687;28;62086;-83
2022/04/16 06:47:23;;;;;;;;;41.00;30.25;;;;;-146.67;100.00;57155.34;5089676;27;65060;-85
2022/04/16 06:49:49;;;;;;;;;28.25;27.00;;;;;-146.67;100.00;57155.34;5082983;27;61937;-73
2022/04/16 06:52:18;;;;;;;;;39.50;35.50;;;;;-146.67;100.00;57155.34;5079648;27;61902;-75
2022/04/16 06:54:43;;;;;;;;;45.50;34.00;;;;;-146.67;100.00;57155.34;5082636;28;61888;-74
2022/04/16 06:57:09;;;;;;;;;41.25;28.00;;;;;-146.67;100.00;57155.34;5083546;27;61854;-75
2022/04/16 06:59:34;;;;;;;;;39.75;31.50;;;;;-146.67;100.00;57155.34;5082540;28;62452;-75
2022/04/16 07:02:00;;;;;;;;;40.75;31.25;;;;;-146.67;100.00;57155.34;5083666;27;61855;-75
2022/04/16 07:04:25;;;;;;;;;36.75;28.50;;;;;-146.67;100.00;57155.34;5083376;27;61934;-79
2022/04/16 07:06:50;;;;;;;;;30.25;27.75;;;;;-146.67;100.00;57155.34;5083230;28;62087;-78
2022/04/16 07:09:16;;;;;;;;;45.75;33.00;;;;;-146.67;100.00;57155.34;5083341;28;61796;-78
2022/04/16 07:11:41;;;;;;;;;34.00;29.75;;;;;-146.67;100.00;57155.34;5083275;28;61811;-75
2022/04/16 07:14:07;;;;;;;;;37.75;32.00;;;;;-146.67;100.00;57155.34;5083776;27;61959;-76
2022/04/16 07:16:32;;;;;;;;;36.75;27.25;;;;;-146.67;100.00;57155.34;5082605;27;61955;-75
2022/04/16 07:18:57;;;;;;;;;29.25;26.50;;;;;-146.67;100.00;57155.34;5083526;27;61875;-74
2022/04/16 07:21:23;;;;;;;;;33.75;27.25;;;;;-146.67;100.00;57155.34;5083249;27;62503;-75
2022/04/16 07:23:48;;;;;;;;;32.25;27.50;;;;;-146.67;100.00;57155.34;5083244;28;61929;-75
2022/04/16 07:26:14;;;;;;;;;35.50;29.75;;;;;-146.67;100.00;57155.34;5082792;27;62732;-76
2022/04/16 07:28:39;;;;;;;;;37.00;32.50;;;;;-146.67;100.00;57155.34;5083138;28;62090;-75
2022/04/16 07:31:04;;;;;;;;;33.75;27.00;;;;;-146.67;100.00;57155.34;5083370;28;62028;-75
2022/04/16 07:33:30;;;;;;;;;36.75;28.50;;;;;-146.67;100.00;57155.34;5082542;27;62301;-81
2022/04/16 07:35:56;;;;;;;;;39.25;32.00;;;;;-146.67;100.00;57155.34;5082809;27;61902;-81
2022/04/16 07:38:22;;;;;;;;;41.50;28.75;;;;;-146.67;100.00;57155.34;5082570;27;61962;-81
2022/04/16 07:40:47;;;;;;;;;35.50;27.50;;;;;-146.67;100.00;57155.34;5083028;28;61745;-80
2022/04/16 07:43:15;;;;;;;;;35.50;30.00;;;;;-146.67;100.00;57155.34;5081758;28;61915;-79
2022/04/16 07:45:41;;;;;;;;;32.25;24.75;;;;;-146.67;100.00;57155.34;5081760;27;62588;-79
2022/04/16 07:48:07;;;;;;;;;47.00;33.50;;;;;-146.67;100.00;57155.34;5082731;27;61980;-80
2022/04/16 07:50:33;;;;;;;;;34.50;31.75;;;;;-146.67;100.00;57155.34;5083014;27;61965;-80
2022/04/16 07:52:59;;;;;;;;;37.00;32.00;;;;;-146.67;100.00;57155.34;5083120;27;61739;-80
2022/04/16 07:55:27;;;;;;;;;40.50;33.25;;;;;-146.67;100.00;57155.34;5097830;27;64360;-79
2022/04/16 07:57:53;;;;;;;;;36.50;31.75;;;;;-146.67;100.00;57155.34;5098536;27;61760;-74
2022/04/16 08:00:19;;;;;;;;;33.75;29.50;;;;;-146.67;100.00;57155.34;5082643;27;61816;-74
2022/04/16 08:02:44;;;;;;;;;34.75;28.50;;;;;-146.67;100.00;57155.34;5082467;27;61735;-74
2022/04/16 08:05:09;;;;;;;;;40.25;34.25;;;;;-146.67;100.00;57155.34;5082156;27;62041;-74
2022/04/16 08:07:35;;;;;;;;;42.25;31.50;;;;;-146.67;100.00;57155.34;5082403;28;61940;-84
2022/04/16 08:10:00;;;;;;;;;35.00;28.00;;;;;-146.67;100.00;57155.34;5082169;27;61786;-77
2022/04/16 08:12:26;;;;;;;;;35.00;33.00;;;;;-146.67;100.00;57155.34;5082844;27;62154;-76
2022/04/16 08:14:52;;;;;;;;;31.50;26.50;;;;;-146.67;100.00;57155.34;5080137;28;63790;-83
2022/04/16 08:17:18;;;;;;;;;41.00;33.75;;;;;-146.67;100.00;57155.34;5098293;27;62087;-75
2022/04/16 08:19:44;;;;;;;;;29.00;27.00;;;;;-146.67;100.00;57155.34;5082385;28;62043;-85
2022/04/16 08:22:17;;;;;;;;;33.75;29.50;;;;;-146.67;100.00;57155.34;5082495;27;62056;-83
2022/04/16 08:24:55;;;;;;;;;32.25;31.25;;;;;-146.67;100.00;57155.34;5081987;27;61867;-83
2022/04/16 08:27:21;;;;;;;;;36.50;31.25;;;;;-146.67;100.00;57155.34;5082393;27;61824;-79
2022/04/16 08:29:47;;;;;;;;;43.25;34.50;;;;;-146.67;100.00;57155.34;5097723;27;61861;-80
2022/04/16 08:32:12;;;;;;;;;32.75;28.00;;;;;-146.67;100.00;57155.34;5094547;27;61907;-79
2022/04/16 08:34:37;;;;;;;;;42.75;33.50;;;;;-146.67;100.00;57155.34;5061422;28;61671;-81
2022/04/16 08:37:03;;;;;;;;;36.75;33.00;;;;;-146.67;100.00;57155.34;5065436;28;61784;-80
2022/04/16 08:39:29;;;;;;;;;39.75;29.75;;;;;-146.67;100.00;57155.34;5081414;27;62141;-81
2022/04/16 08:41:56;;;;;;;;;41.25;32.75;;;;;-146.67;100.00;57155.34;5082252;27;61714;-80
2022/04/16 08:44:25;;;;;;;;;32.00;28.25;;;;;-146.67;100.00;57155.34;5096870;27;64841;-81
2022/04/16 08:46:52;;;;;;;;;43.25;33.25;;;;;-146.67;100.00;57155.34;5081763;27;61979;-81
2022/04/16 08:49:19;;;;;;;;;48.25;36.50;;;;;-146.67;100.00;57155.34;5097927;27;62021;-79
2022/04/16 08:51:46;;;;;;;;;41.50;31.75;;;;;-146.67;100.00;57155.34;5081607;27;61732;-75
2022/04/16 08:54:12;;;;;;;;;35.00;28.75;;;;;-146.67;100.00;57155.34;5081309;28;63153;-75
2022/04/16 08:56:39;;;;;;;;;38.00;33.75;;;;;-146.67;100.00;57155.34;5082155;27;62020;-78
2022/04/16 08:59:04;;;;;;;;;33.75;28.00;;;;;-146.67;100.00;57155.34;5081613;28;62449;-82
2022/04/16 09:01:30;;;;;;;;;38.00;29.00;;;;;-146.67;100.00;57155.34;5108201;27;61989;-75
2022/04/16 09:03:58;;;;;;;;;36.00;31.50;;;;;-146.67;100.00;57155.34;5080597;27;62183;-74
2022/04/16 09:06:27;;;;;;;;;30.25;27.00;;;;;-146.67;100.00;57155.34;5096749;27;61809;-75
2022/04/16 09:08:53;;;;;;;;;37.25;27.75;;;;;-146.67;100.00;57155.34;5078245;28;61885;-75
2022/04/16 09:11:26;;;;;;;;;41.75;34.25;;;;;-146.67;100.00;57155.34;5081521;27;61784;-75
2022/04/16 09:13:55;;;;;;;;;36.50;30.00;;;;;-146.67;100.00;57155.34;5077189;28;63056;-75
2022/04/16 09:16:22;;;;;;;;;41.25;31.25;;;;;-146.67;100.00;57155.34;5081453;27;61862;-75
2022/04/16 09:18:51;;;;;;;;;30.50;28.25;;;;;-146.67;100.00;57155.34;5081232;27;61733;-75
2022/04/16 09:21:24;;;;;;;;;40.00;32.75;;;;;-146.67;100.00;57155.34;5081486;27;61914;-75
2022/04/16 09:23:53;;;;;;;;;32.25;24.25;;;;;-146.67;100.00;57155.34;5080120;28;63042;-74
2022/04/16 09:26:51;;;;;;;;;28.50;26.50;;;;;-146.67;100.00;57155.34;5080847;27;62008;-74
2022/04/16 09:29:18;;;;;;;;;33.00;28.25;;;;;-146.67;100.00;57155.34;5072110;28;61826;-76
2022/04/16 09:31:49;;;;;;;;;31.50;29.00;;;;;-146.67;100.00;57155.34;5081663;27;62366;-76
2022/04/16 09:34:20;;;;;;;;;35.00;27.50;;;;;-146.67;100.00;57155.34;5080842;27;61897;-76
2022/04/16 09:36:47;;;;;;;;;47.25;32.50;;;;;-146.67;100.00;57155.34;5080477;27;61706;-75
2022/04/16 09:39:13;;;;;;;;;39.00;30.50;;;;;-146.67;100.00;57155.34;5080418;27;61993;-77
2022/04/16 09:41:42;;;;;;;;;30.75;29.75;;;;;-146.67;100.00;57155.34;5080249;27;61890;-78
2022/04/16 09:44:21;;;;;;;;;34.50;26.25;;;;;-146.67;100.00;57155.34;5080500;27;62783;-82
2022/04/16 09:46:48;;;;;;;;;35.25;31.50;;;;;-146.67;100.00;57155.34;5080063;28;61875;-81
2022/04/16 09:49:17;;;;;;;;;29.75;28.00;;;;;-146.67;100.00;57155.34;5081337;27;61917;-79
2022/04/16 09:51:46;;;;;;;;;27.25;26.00;;;;;-146.67;100.00;57155.34;5081210;28;61875;-81
2022/04/16 09:54:13;;;;;;;;;34.25;25.50;;;;;-146.67;100.00;57155.34;5080158;28;61924;-81
2022/04/16 09:56:42;;;;;;;;;31.75;27.75;;;;;-146.67;100.00;57155.34;5081194;28;61851;-80
2022/04/16 09:59:12;;;;;;;;;34.25;27.00;;;;;-146.67;100.00;57155.34;5081152;28;61977;-80
2022/04/16 10:01:39;;;;;;;;;38.00;28.25;;;;;-146.67;100.00;57155.34;5097115;27;62067;-81
2022/04/16 10:04:06;;;;;;;;;27.50;27.00;;;;;-146.67;100.00;57155.34;5080045;28;61846;-81
2022/04/16 10:06:33;;;;;;;;;33.25;28.75;;;;;-146.67;100.00;57155.34;5080391;27;61731;-81
2022/04/16 10:09:13;;;;;;;;;28.25;25.00;;;;;-146.67;100.00;57155.34;5079977;27;61801;-77
2022/04/16 10:14:36;;;;;;;;;20.25;18.00;;;;;-146.67;100.00;57155.34;5077231;28;61822;-79
2022/04/16 10:17:24;;;;;;;;;32.75;29.00;;;;;-146.67;100.00;57155.34;5078124;28;61776;-79
2022/04/16 10:19:50;;;;;;;;;15.25;14.50;;;;;-146.67;100.00;57155.34;5061335;28;61797;-77
2022/04/16 10:22:27;;;;;;;;;18.25;16.00;;;;;-146.67;100.00;57155.34;5061120;28;61790;-77
2022/04/16 10:24:58;;;;;;;;;23.00;19.75;;;;;-146.67;100.00;57155.34;5077581;28;62828;-80
2022/04/16 10:27:31;;;;;;;;;22.50;15.50;;;;;-146.67;100.00;57155.34;5080710;28;62087;-77
2022/04/16 10:30:01;;;;;;;;;10.00;7.75;;;;;-146.67;100.00;57155.34;5081786;28;62008;-75
2022/04/16 10:32:39;;;;;;;;;15.50;13.50;;;;;-146.67;100.00;57155.34;5079302;28;61918;-80
2022/04/16 10:35:06;;;;;;;;;18.75;14.50;;;;;-146.67;100.00;57155.34;5060374;28;64114;-81
2022/04/16 10:37:39;;;;;;;;;19.75;14.00;;;;;-146.67;100.00;57155.34;5063987;28;61893;-79
2022/04/16 10:40:35;;;;;;;;;19.00;17.75;;;;;-146.67;100.00;57155.34;5061140;28;61899;-79
2022/04/16 10:43:01;;;;;;;;;17.50;17.50;;;;;-146.67;100.00;57155.34;5070663;28;62014;-81
2022/04/16 10:45:27;;;;;;;;;25.00;18.75;;;;;-146.67;100.00;57155.34;5080763;28;61968;-83
2022/04/16 10:47:55;;;;;;;;;18.75;18.25;;;;;-146.67;100.00;57155.34;5084178;28;62572;-75
2022/04/16 10:50:22;;;;;;;;;19.50;18.75;;;;;-146.67;100.00;57155.34;5080924;28;61821;-76
2022/04/16 10:53:00;;;;;;;;;17.00;16.25;;;;;-146.67;100.00;57155.34;5082722;28;62015;-77
2022/04/16 10:55:36;;;;;;;;;22.00;20.50;;;;;-146.67;100.00;57155.34;5098462;27;63554;-77
2022/04/16 10:58:03;;;;;;;;;22.00;20.00;;;;;-146.67;100.00;57155.34;5099671;27;61796;-81
2022/04/16 11:00:40;;;;;;;;;18.75;15.50;;;;;-146.67;100.00;57155.34;5099484;27;61773;-76
2022/04/16 11:03:10;;;;;;;;;20.75;12.25;;;;;-146.67;100.00;57155.34;5083971;27;61943;-79
2022/04/16 11:05:42;;;;;;;;;15.00;11.25;;;;;-146.67;100.00;57155.34;5082811;27;61769;-76
2022/04/16 11:08:10;;;;;;;;;9.75;9.00;;;;;-146.67;100.00;57155.34;5098881;27;62269;-76
2022/04/16 11:10:36;;;;;;;;;11.00;11.00;;;;;-146.67;100.00;57155.34;5084022;27;62009;-77